createdAt,value
2018-07-01T00:01:35.920Z,102347.23
2018-07-01T00:04:05.839Z,102349.89
2018-07-01T00:06:35.434Z,102345.46
2018-07-01T00:09:06.789Z,102345.03
2018-07-01T00:11:36.459Z,102345.50
2018-07-01T00:14:05.977Z,102350.86
2018-07-01T00:16:35.699Z,102350.84
2018-07-01T00:19:05.393Z,102364.16
2018-07-01T00:21:34.958Z,102360.62
2018-07-01T00:24:04.740Z,102367.28
2018-07-01T00:26:34.407Z,102366.41
2018-07-01T00:29:03.971Z,102361.97
2018-07-01T00:31:33.685Z,102360.17
2018-07-01T00:34:03.417Z,102365.08
2018-07-01T00:36:33.032Z,102359.77
2018-07-01T00:39:02.824Z,102369.55
2018-07-01T00:41:32.447Z,102370.41
2018-07-01T00:44:01.810Z,102369.95
2018-07-01T00:46:31.601Z,102375.73
2018-07-01T00:49:01.655Z,102363.80
2018-07-01T00:51:31.090Z,102366.48
2018-07-01T00:54:00.806Z,102370.89
2018-07-01T00:56:30.666Z,102375.73
2018-07-01T00:58:59.874Z,102373.53
2018-07-01T01:01:29.261Z,102373.13
2018-07-01T01:03:59.180Z,102373.58
2018-07-01T01:06:28.960Z,102373.14
2018-07-01T01:08:58.816Z,102379.78
2018-07-01T01:11:28.937Z,102376.68
2018-07-01T01:13:58.627Z,102381.98
2018-07-01T01:16:28.498Z,102380.20
2018-07-01T01:18:58.603Z,102383.30
2018-07-01T01:21:28.464Z,102390.39
2018-07-01T01:23:58.032Z,102389.52
2018-07-01T01:26:28.042Z,102390.84
2018-07-01T01:28:57.798Z,102392.61
2018-07-01T01:31:27.436Z,102397.48
2018-07-01T01:33:57.560Z,102398.83
2018-07-01T01:36:29.376Z,102400.13
2018-07-01T01:39:01.607Z,102411.19
2018-07-01T01:41:42.011Z,102412.08
2018-07-01T01:44:18.220Z,102412.96
2018-07-01T01:46:53.475Z,102408.97
2018-07-01T01:49:28.088Z,102413.86
2018-07-01T01:52:03.118Z,102421.80
2018-07-01T01:54:53.871Z,102294.34
2018-07-01T01:57:30.891Z,102424.45
2018-07-01T02:02:06.982Z,102428.86
2018-07-01T02:04:46.932Z,102437.27
2018-07-01T02:07:26.963Z,102436.38
2018-07-01T02:09:56.572Z,102441.22
2018-07-01T02:12:26.519Z,102442.11
2018-07-01T02:15:00.929Z,102445.59
2018-07-01T02:17:47.020Z,102449.98
2018-07-01T02:20:18.266Z,102454.38
2018-07-01T02:22:51.761Z,102449.08
2018-07-01T02:25:23.764Z,102452.59
2018-07-01T02:27:53.812Z,102449.02
2018-07-01T02:30:23.629Z,102450.33
2018-07-01T02:32:53.155Z,102456.95
2018-07-01T02:35:23.008Z,102457.81
2018-07-01T02:37:52.342Z,102459.19
2018-07-01T02:40:21.777Z,102459.63
2018-07-01T02:42:51.434Z,102455.62
2018-07-01T02:45:21.061Z,102460.47
2018-07-01T02:47:50.629Z,102462.21
2018-07-01T02:50:20.410Z,102461.77
2018-07-01T02:52:50.245Z,102459.53
2018-07-01T02:55:19.893Z,102457.77
2018-07-01T02:57:49.922Z,102457.35
2018-07-01T03:00:19.419Z,102464.88
2018-07-01T03:02:48.838Z,102465.27
2018-07-01T03:05:18.763Z,102464.87
2018-07-01T03:07:48.143Z,102463.09
2018-07-01T03:10:17.531Z,102462.20
2018-07-01T03:12:47.501Z,102466.63
2018-07-01T03:15:16.941Z,102461.76
2018-07-01T03:17:46.446Z,102462.67
2018-07-01T03:20:16.346Z,102460.44
2018-07-01T03:22:45.760Z,102458.66
2018-07-01T03:25:15.490Z,102461.33
2018-07-01T03:27:45.126Z,102466.63
2018-07-01T03:30:14.604Z,102466.21
2018-07-01T03:32:44.367Z,102470.17
2018-07-01T03:35:13.873Z,102474.59
2018-07-01T03:37:43.455Z,102469.32
2018-07-01T03:40:12.898Z,102464.47
2018-07-01T03:42:42.812Z,102465.33
2018-07-01T03:45:11.937Z,102471.06
2018-07-01T03:47:41.615Z,102464.00
2018-07-01T03:50:12.008Z,102471.97
2018-07-01T03:52:42.037Z,102470.22
2018-07-01T03:55:13.075Z,102469.30
2018-07-01T03:57:42.605Z,102480.83
2018-07-01T04:00:12.930Z,102482.61
2018-07-01T04:02:43.426Z,102484.35
2018-07-01T04:05:12.889Z,102486.97
2018-07-01T04:07:42.922Z,102488.72
2018-07-01T04:10:12.926Z,102488.70
2018-07-01T04:12:42.678Z,102491.28
2018-07-01T04:15:12.684Z,102494.78
2018-07-01T04:17:42.568Z,102492.08
2018-07-01T04:20:12.853Z,102492.11
2018-07-01T04:22:42.672Z,102493.89
2018-07-01T04:25:12.864Z,102493.44
2018-07-01T04:27:42.973Z,102490.38
2018-07-01T04:30:12.784Z,102495.23
2018-07-01T04:32:42.742Z,102492.13
2018-07-01T04:35:12.711Z,102496.59
2018-07-01T04:37:42.297Z,102492.20
2018-07-01T04:40:12.593Z,102501.11
2018-07-01T04:42:42.704Z,102499.76
2018-07-01T04:45:12.704Z,102499.33
2018-07-01T04:47:42.666Z,102494.95
2018-07-01T04:50:13.184Z,102495.44
2018-07-01T04:52:43.404Z,102494.11
2018-07-01T04:55:13.629Z,102498.55
2018-07-01T04:57:43.580Z,102498.17
2018-07-01T05:00:13.321Z,102499.52
2018-07-01T05:02:42.980Z,102500.05
2018-07-01T05:05:12.683Z,102492.51
2018-07-01T05:07:42.224Z,102493.41
2018-07-01T05:10:11.869Z,102496.08
2018-07-01T05:12:41.834Z,102496.12
2018-07-01T05:15:11.376Z,102501.89
2018-07-01T05:17:40.820Z,102498.81
2018-07-01T05:20:10.964Z,102499.25
2018-07-01T05:22:40.307Z,102497.05
2018-07-01T05:25:09.777Z,102472.27
2018-07-01T05:27:39.930Z,102500.59
2018-07-01T05:30:09.318Z,102505.48
2018-07-01T05:32:38.781Z,102504.59
2018-07-01T05:35:08.931Z,102502.87
2018-07-01T05:37:38.649Z,102499.73
2018-07-01T05:40:08.059Z,102507.72
2018-07-01T05:42:38.080Z,102502.39
2018-07-01T05:45:07.765Z,102505.91
2018-07-01T05:47:37.293Z,102505.92
2018-07-01T05:50:07.072Z,102497.93
2018-07-01T05:52:36.588Z,102501.45
2018-07-01T05:55:06.159Z,102497.45
2018-07-01T05:57:35.945Z,102509.42
2018-07-01T06:00:05.967Z,102508.51
2018-07-01T06:02:35.652Z,102514.20
2018-07-01T06:05:05.612Z,102511.13
2018-07-01T06:07:35.015Z,102519.98
2018-07-01T06:10:04.704Z,102514.61
2018-07-01T06:12:34.488Z,102512.38
2018-07-01T06:15:03.920Z,102513.70
2018-07-01T06:17:33.569Z,102507.45
2018-07-01T06:20:03.263Z,102503.39
2018-07-01T06:22:32.785Z,102505.59
2018-07-01T06:25:02.564Z,102503.76
2018-07-01T06:27:32.147Z,102501.01
2018-07-01T06:30:01.588Z,102494.69
2018-07-01T06:32:31.160Z,102489.31
2018-07-01T06:35:00.771Z,102495.48
2018-07-01T06:37:30.305Z,102490.45
2018-07-01T06:40:00.051Z,102460.77
2018-07-01T06:42:29.853Z,102475.32
2018-07-01T06:44:59.140Z,102482.84
2018-07-01T06:47:28.992Z,102480.48
2018-07-01T06:49:58.537Z,102484.41
2018-07-01T06:52:27.839Z,102488.86
2018-07-01T06:54:57.473Z,102487.92
2018-07-01T06:57:27.396Z,102479.84
2018-07-01T06:59:57.162Z,102482.37
2018-07-01T07:02:26.559Z,102481.00
2018-07-01T07:04:56.662Z,102484.95
2018-07-01T07:07:26.143Z,102475.94
2018-07-01T07:09:55.591Z,102475.88
2018-07-01T07:12:25.052Z,102482.07
2018-07-01T07:14:54.896Z,102474.89
2018-07-01T07:17:24.359Z,102477.53
2018-07-01T07:19:53.875Z,102476.06
2018-07-01T07:22:23.383Z,102477.41
2018-07-01T07:24:52.521Z,102483.22
2018-07-01T07:27:21.920Z,102483.73
2018-07-01T07:29:51.524Z,102486.23
2018-07-01T07:32:20.573Z,102480.93
2018-07-01T07:34:50.400Z,102478.73
2018-07-01T07:37:19.743Z,102471.98
2018-07-01T07:39:48.959Z,102465.36
2018-07-01T07:42:18.222Z,102467.02
2018-07-01T07:44:47.817Z,102459.81
2018-07-01T07:47:16.920Z,102462.94
2018-07-01T07:49:46.318Z,102458.72
2018-07-01T07:52:16.268Z,102464.70
2018-07-01T07:54:45.527Z,102452.98
2018-07-01T07:57:14.798Z,102455.01
2018-07-01T07:59:44.359Z,102460.02
2018-07-01T08:02:14.020Z,102453.17
2018-07-01T08:04:43.454Z,102457.88
2018-07-01T08:07:13.375Z,102462.17
2018-07-01T08:09:43.083Z,102454.30
2018-07-01T08:12:12.383Z,102463.94
2018-07-01T08:14:41.870Z,102460.16
2018-07-01T08:17:12.133Z,102453.80
2018-07-01T08:19:41.697Z,102467.63
2018-07-01T08:22:11.240Z,102465.27
2018-07-01T08:24:40.659Z,102473.27
2018-07-01T08:27:10.754Z,102478.36
2018-07-01T08:29:39.950Z,102474.83
2018-07-01T08:32:09.806Z,102474.89
2018-07-01T08:34:39.340Z,102473.77
2018-07-01T08:37:09.241Z,102463.05
2018-07-01T08:39:38.874Z,102464.52
2018-07-01T08:42:26.290Z,102463.83
2018-07-01T08:44:56.673Z,102463.65
2018-07-01T08:47:26.270Z,102466.23
2018-07-01T08:49:55.745Z,102461.69
2018-07-01T08:52:25.148Z,102462.10
2018-07-01T08:54:54.949Z,102458.56
2018-07-01T08:57:24.715Z,102454.38
2018-07-01T08:59:54.269Z,102451.29
2018-07-01T09:02:24.270Z,102457.16
2018-07-01T09:04:53.695Z,102452.23
2018-07-01T09:07:23.262Z,102448.06
2018-07-01T09:09:53.216Z,102445.68
2018-07-01T09:12:22.664Z,102440.47
2018-07-01T09:14:52.226Z,102446.51
2018-07-01T09:17:22.376Z,102437.11
2018-07-01T09:19:52.084Z,102429.66
2018-07-01T09:22:21.863Z,102425.34
2018-07-01T09:24:51.531Z,102422.98
2018-07-01T09:27:21.292Z,102420.42
2018-07-01T09:29:56.004Z,102421.92
2018-07-01T09:32:25.894Z,102427.30
2018-07-01T09:34:55.815Z,102424.91
2018-07-01T09:37:25.243Z,102422.67
2018-07-01T09:39:54.781Z,102415.94
2018-07-01T09:42:24.316Z,102418.53
2018-07-01T09:44:53.546Z,102412.92
2018-07-01T09:47:23.184Z,102415.69
2018-07-01T09:49:52.763Z,102417.90
2018-07-01T09:52:22.338Z,102418.44
2018-07-01T09:54:52.171Z,102424.96
2018-07-01T09:57:22.051Z,102430.41
2018-07-01T09:59:51.599Z,102418.65
2018-07-01T10:02:21.412Z,102411.34
2018-07-01T10:04:51.127Z,102411.27
2018-07-01T10:07:20.197Z,102412.80
2018-07-01T10:09:50.081Z,102405.12
2018-07-01T10:12:19.956Z,102404.27
2018-07-01T10:14:49.366Z,102404.88
2018-07-01T10:17:19.310Z,102401.42
2018-07-01T10:19:49.203Z,102397.54
2018-07-01T10:22:18.727Z,102386.66
2018-07-01T10:24:49.313Z,102408.30
2018-07-01T10:27:18.727Z,102399.70
2018-07-01T10:29:48.277Z,102390.90
2018-07-01T10:32:18.155Z,102374.66
2018-07-01T10:34:47.712Z,102386.45
2018-07-01T10:37:17.141Z,102378.91
2018-07-01T10:39:47.004Z,102383.16
2018-07-01T10:42:16.359Z,102381.59
2018-07-01T10:44:45.709Z,102379.34
2018-07-01T10:47:15.533Z,102370.48
2018-07-01T10:49:44.986Z,102386.95
2018-07-01T10:52:15.357Z,102377.72
2018-07-01T10:54:45.144Z,102367.34
2018-07-01T10:57:14.617Z,102360.04
2018-07-01T10:59:44.042Z,102363.23
2018-07-01T11:02:14.004Z,102358.75
2018-07-01T11:04:43.770Z,102357.06
2018-07-01T11:07:13.489Z,102360.55
2018-07-01T11:09:43.260Z,102359.89
2018-07-01T11:12:12.931Z,102351.02
2018-07-01T11:14:42.229Z,102349.95
2018-07-01T11:17:12.215Z,102340.19
2018-07-01T11:19:42.158Z,102359.32
2018-07-01T11:22:11.516Z,102350.72
2018-07-01T11:24:41.221Z,102338.36
2018-07-01T11:27:10.956Z,102336.11
2018-07-01T11:29:40.386Z,102326.02
2018-07-01T11:32:10.099Z,102327.81
2018-07-01T11:34:39.911Z,102327.12
2018-07-01T11:37:09.306Z,102312.56
2018-07-01T11:39:38.945Z,102331.14
2018-07-01T11:42:08.496Z,102321.48
2018-07-01T11:44:38.005Z,102329.98
2018-07-01T11:47:07.807Z,102325.55
2018-07-01T11:49:37.629Z,102312.01
2018-07-01T11:52:06.982Z,102321.23
2018-07-01T11:54:36.539Z,102319.67
2018-07-01T11:57:06.243Z,102311.86
2018-07-01T11:59:35.667Z,102298.43
2018-07-01T12:02:05.410Z,102310.05
2018-07-01T12:04:35.044Z,102304.34
2018-07-01T12:07:04.829Z,102294.98
2018-07-01T12:09:34.619Z,102298.13
2018-07-01T12:12:04.140Z,102294.64
2018-07-01T12:14:33.776Z,102297.94
2018-07-01T12:17:03.402Z,102290.70
2018-07-01T12:19:32.877Z,102288.77
2018-07-01T12:22:02.724Z,102291.03
2018-07-01T12:24:32.472Z,102288.03
2018-07-01T12:27:01.925Z,102292.66
2018-07-01T12:29:31.417Z,102289.59
2018-07-01T12:32:00.933Z,102286.94
2018-07-01T12:34:30.480Z,102277.33
2018-07-01T12:37:00.042Z,102268.30
2018-07-01T12:39:35.453Z,102259.80
2018-07-01T12:42:05.277Z,102260.82
2018-07-01T12:44:34.687Z,102269.82
2018-07-01T12:47:04.117Z,102272.18
2018-07-01T12:49:33.855Z,102263.56
2018-07-01T12:52:03.115Z,102259.97
2018-07-01T12:54:32.638Z,102258.84
2018-07-01T12:57:01.967Z,102260.27
2018-07-01T12:59:31.188Z,102250.67
2018-07-01T13:02:00.719Z,102247.74
2018-07-01T13:04:30.173Z,102259.73
2018-07-01T13:06:59.739Z,102245.28
2018-07-01T13:09:29.653Z,102241.47
2018-07-01T13:11:58.894Z,102237.75
2018-07-01T13:14:28.317Z,102240.63
2018-07-01T13:16:58.045Z,102231.57
2018-07-01T13:19:27.403Z,102234.26
2018-07-01T13:21:56.655Z,102234.37
2018-07-01T13:24:26.353Z,102226.02
2018-07-01T13:26:55.580Z,102217.13
2018-07-01T13:29:24.767Z,102209.94
2018-07-01T13:31:54.690Z,102212.56
2018-07-01T13:34:24.193Z,102212.86
2018-07-01T13:36:54.100Z,102193.48
2018-07-01T13:39:24.116Z,102197.06
2018-07-01T13:41:53.698Z,102194.78
2018-07-01T13:44:23.169Z,102199.71
2018-07-01T13:46:52.920Z,102187.30
2018-07-01T13:49:22.089Z,102177.50
2018-07-01T13:51:51.414Z,102176.95
2018-07-01T13:54:20.987Z,102183.80
2018-07-01T13:56:50.258Z,102182.98
2018-07-01T13:59:20.047Z,102174.95
2018-07-01T14:01:49.774Z,102164.68
2018-07-01T14:04:19.225Z,102172.77
2018-07-01T14:06:48.530Z,102170.88
2018-07-01T14:09:18.354Z,102174.13
2018-07-01T14:11:47.690Z,102158.17
2018-07-01T14:14:16.909Z,102167.12
2018-07-01T14:16:46.225Z,102166.33
2018-07-01T14:19:15.514Z,102166.44
2018-07-01T14:21:44.680Z,102164.15
2018-07-01T14:24:14.084Z,102169.86
2018-07-01T14:26:43.928Z,102167.88
2018-07-01T14:29:13.152Z,102168.41
2018-07-01T14:31:42.676Z,102176.64
2018-07-01T14:34:11.959Z,102167.95
2018-07-01T14:36:41.529Z,102173.95
2018-07-01T14:39:12.970Z,102172.70
2018-07-01T14:41:42.952Z,102146.89
2018-07-01T14:44:12.786Z,102159.52
2018-07-01T14:46:42.550Z,102166.47
2018-07-01T14:49:12.034Z,102165.92
2018-07-01T14:51:41.657Z,102166.13
2018-07-01T14:54:11.564Z,102160.86
2018-07-01T14:56:41.048Z,102162.70
2018-07-01T14:59:10.860Z,102156.39
2018-07-01T15:01:40.540Z,102150.16
2018-07-01T15:04:10.047Z,102146.70
2018-07-01T15:06:39.546Z,102136.43
2018-07-01T15:09:11.590Z,102133.85
2018-07-01T15:11:41.135Z,102137.58
2018-07-01T15:14:10.630Z,102140.11
2018-07-01T15:16:40.015Z,102135.59
2018-07-01T15:19:09.624Z,102143.55
2018-07-01T15:21:39.259Z,102142.03
2018-07-01T15:24:08.735Z,102142.84
2018-07-01T15:26:38.242Z,102144.36
2018-07-01T15:29:08.224Z,102144.08
2018-07-01T15:31:37.775Z,102137.47
2018-07-01T15:34:07.425Z,102153.50
2018-07-01T15:36:37.158Z,102141.23
2018-07-01T15:39:09.450Z,102137.14
2018-07-01T15:41:39.134Z,102132.69
2018-07-01T15:44:08.621Z,102135.08
2018-07-01T15:46:38.366Z,102142.66
2018-07-01T15:49:08.066Z,102135.77
2018-07-01T15:51:37.595Z,102128.31
2018-07-01T15:54:07.390Z,102127.19
2018-07-01T15:56:37.049Z,102120.52
2018-07-01T15:59:06.648Z,102120.19
2018-07-01T16:01:36.885Z,102120.89
2018-07-01T16:04:06.815Z,102120.19
2018-07-01T16:06:36.476Z,102116.73
2018-07-01T16:09:08.749Z,102110.12
2018-07-01T16:11:38.270Z,102104.40
2018-07-01T16:14:07.922Z,102117.20
2018-07-01T16:16:37.511Z,102114.66
2018-07-01T16:19:07.843Z,102121.34
2018-07-01T16:21:37.491Z,102116.10
2018-07-01T16:24:07.390Z,102117.67
2018-07-01T16:26:42.479Z,102114.70
2018-07-01T16:29:12.417Z,102126.05
2018-07-01T16:31:42.136Z,102124.70
2018-07-01T16:34:11.570Z,102119.09
2018-07-01T16:36:40.956Z,102122.70
2018-07-01T16:39:12.596Z,102118.38
2018-07-01T16:41:42.470Z,102127.50
2018-07-01T16:44:12.194Z,102121.22
2018-07-01T16:46:42.067Z,102113.36
2018-07-01T16:49:11.630Z,102114.99
2018-07-01T16:51:41.091Z,102119.81
2018-07-01T16:54:10.915Z,102118.57
2018-07-01T16:56:40.695Z,102117.12
2018-07-01T16:59:10.527Z,102114.75
2018-07-01T17:01:40.355Z,102108.56
2018-07-01T17:04:10.253Z,102105.02
2018-07-01T17:06:40.150Z,102109.38
2018-07-01T17:09:10.219Z,102104.84
2018-07-01T17:11:40.126Z,102093.25
2018-07-01T17:14:09.929Z,102102.80
2018-07-01T17:16:39.787Z,102080.09
2018-07-01T17:19:10.041Z,102101.56
2018-07-01T17:21:39.242Z,102106.12
2018-07-01T17:24:08.745Z,102097.92
2018-07-01T17:26:38.842Z,102108.09
2018-07-01T17:29:08.111Z,102100.17
2018-07-01T17:31:42.515Z,102101.66
2018-07-01T17:34:12.795Z,102100.59
2018-07-01T17:36:42.193Z,102091.65
2018-07-01T17:39:15.217Z,102099.45
2018-07-01T17:41:44.293Z,102100.70
2018-07-01T17:44:13.785Z,102096.66
2018-07-01T17:46:43.630Z,102095.53
2018-07-01T17:49:13.370Z,102107.32
2018-07-01T17:51:42.943Z,102096.87
2018-07-01T17:54:12.626Z,102106.51
2018-07-01T17:56:41.977Z,102111.13
2018-07-01T17:59:12.084Z,102098.62
2018-07-01T18:01:42.258Z,102091.61
2018-07-01T18:04:14.467Z,102088.92
2018-07-01T18:06:44.656Z,102089.45
2018-07-01T18:09:14.568Z,102100.66
2018-07-01T18:11:44.526Z,102089.45
2018-07-01T18:14:14.065Z,102087.03
2018-07-01T18:16:43.457Z,102085.23
2018-07-01T18:19:13.300Z,102076.36
2018-07-01T18:21:48.139Z,102081.60
2018-07-01T18:24:42.860Z,102080.87
2018-07-01T18:26:42.833Z,102072.83
2018-07-01T18:29:17.870Z,102071.29
2018-07-01T18:31:43.048Z,102073.05
2018-07-01T18:34:12.845Z,102074.86
2018-07-01T18:36:42.769Z,102076.66
2018-07-01T18:39:12.996Z,102076.45
2018-07-01T18:41:42.606Z,102071.70
2018-07-01T18:44:12.191Z,102066.05
2018-07-01T18:46:42.164Z,102063.61
2018-07-01T18:49:12.412Z,102069.98
2018-07-01T18:51:42.478Z,102071.39
2018-07-01T18:54:12.248Z,102070.48
2018-07-01T18:56:41.703Z,102066.94
2018-07-01T18:59:11.702Z,102066.03
2018-07-01T19:01:41.622Z,102067.07
2018-07-01T19:04:11.492Z,102061.70
2018-07-01T19:06:41.192Z,102064.26
2018-07-01T19:09:11.683Z,102061.34
2018-07-01T19:11:41.146Z,102068.44
2018-07-01T19:14:11.171Z,102068.50
2018-07-01T19:16:40.742Z,102063.96
2018-07-01T19:19:10.707Z,102063.14
2018-07-01T19:21:40.536Z,102063.90
2018-07-01T19:24:10.027Z,102065.24
2018-07-01T19:26:39.494Z,102066.24
2018-07-01T19:29:09.406Z,102071.69
2018-07-01T19:31:38.791Z,102077.18
2018-07-01T19:34:08.603Z,102073.02
2018-07-01T19:36:38.246Z,102070.43
2018-07-01T19:39:10.127Z,102066.10
2018-07-01T19:41:40.243Z,102073.41
2018-07-01T19:44:09.988Z,102073.48
2018-07-01T19:46:39.736Z,102068.58
2018-07-01T19:49:09.633Z,102067.30
2018-07-01T19:51:39.277Z,101932.09
2018-07-01T19:54:08.987Z,102063.87
2018-07-01T19:56:38.765Z,102069.41
2018-07-01T19:59:08.497Z,102072.25
2018-07-01T20:01:37.655Z,102070.56
2018-07-01T20:04:07.263Z,102074.95
2018-07-01T20:06:37.022Z,102076.11
2018-07-01T20:09:08.667Z,102077.02
2018-07-01T20:11:38.418Z,102077.94
2018-07-01T20:14:07.948Z,102075.25
2018-07-01T20:16:37.857Z,102070.78
2018-07-01T20:19:07.493Z,102078.88
2018-07-01T20:21:37.268Z,102080.05
2018-07-01T20:24:07.066Z,102078.61
2018-07-01T20:26:39.626Z,102078.05
2018-07-01T20:29:09.442Z,102077.80
2018-07-01T20:31:39.167Z,102083.98
2018-07-01T20:34:08.847Z,102079.00
2018-07-01T20:36:38.810Z,102083.98
2018-07-01T20:39:11.006Z,102082.48
2018-07-01T20:41:41.030Z,102076.95
2018-07-01T20:44:10.527Z,102072.36
2018-07-01T20:46:40.192Z,102077.97
2018-07-01T20:49:09.948Z,102073.52
2018-07-01T20:51:39.389Z,102073.95
2018-07-01T20:54:08.919Z,102078.47
2018-07-01T20:56:38.814Z,102075.05
2018-07-01T20:59:09.322Z,102079.67
2018-07-01T21:01:38.962Z,102085.08
2018-07-01T21:04:08.688Z,102084.70
2018-07-01T21:06:38.293Z,102074.01
2018-07-01T21:09:09.870Z,102075.47
2018-07-01T21:11:39.761Z,102073.44
2018-07-01T21:14:09.575Z,102080.89
2018-07-01T21:16:38.962Z,102082.66
2018-07-01T21:19:08.479Z,102085.28
2018-07-01T21:21:38.410Z,102082.73
2018-07-01T21:24:07.864Z,102086.92
2018-07-01T21:26:37.611Z,102089.23
2018-07-01T21:29:07.304Z,102088.06
2018-07-01T21:31:36.831Z,102086.92
2018-07-01T21:34:06.456Z,102082.64
2018-07-01T21:36:36.327Z,102079.19
2018-07-01T21:39:08.341Z,102076.69
2018-07-01T21:41:38.353Z,102084.27
2018-07-01T21:44:08.338Z,102080.39
2018-07-01T21:46:38.296Z,102075.05
2018-07-01T21:49:08.544Z,102084.13
2018-07-01T21:51:38.606Z,102085.06
2018-07-01T21:54:08.483Z,102093.20
2018-07-01T21:56:37.986Z,102064.11
2018-07-01T21:59:07.421Z,102090.22
2018-07-01T22:01:37.314Z,102087.11
2018-07-01T22:04:07.043Z,102095.83
2018-07-01T22:06:41.900Z,102094.55
2018-07-01T22:09:11.869Z,102087.65
2018-07-01T22:11:53.403Z,102090.42
2018-07-01T22:14:38.875Z,102084.39
2018-07-01T22:17:10.224Z,102091.13
2018-07-01T22:19:40.197Z,102092.57
2018-07-01T22:22:10.043Z,102092.22
2018-07-01T22:24:40.091Z,102087.37
2018-07-01T22:27:09.995Z,102089.98
2018-07-01T22:29:39.494Z,102093.59
2018-07-01T22:32:09.448Z,102089.14
2018-07-01T22:34:39.382Z,102095.92
2018-07-01T22:37:09.202Z,102097.45
2018-07-01T22:39:38.963Z,102101.25
2018-07-01T22:42:08.475Z,102098.64
2018-07-01T22:44:38.158Z,102100.86
2018-07-01T22:47:07.745Z,102098.78
2018-07-01T22:49:37.123Z,102097.59
2018-07-01T22:52:06.981Z,102105.27
2018-07-01T22:54:36.691Z,102095.63
2018-07-01T22:57:06.161Z,102094.86
2018-07-01T22:59:35.842Z,102086.18
2018-07-01T23:03:15.550Z,102087.23
2018-07-01T23:05:45.256Z,102083.80
2018-07-01T23:08:15.183Z,102081.18
2018-07-01T23:10:44.611Z,102081.33
2018-07-01T23:13:14.363Z,102077.05
2018-07-01T23:15:44.087Z,102077.16
2018-07-01T23:18:13.565Z,102064.36
2018-07-01T23:20:43.446Z,102067.53
2018-07-01T23:23:13.444Z,102049.99
2018-07-01T23:25:42.738Z,102072.94
2018-07-01T23:28:12.170Z,102070.27
2018-07-01T23:30:42.131Z,102069.86
2018-07-01T23:33:11.608Z,102073.96
2018-07-01T23:35:41.001Z,102068.64
2018-07-01T23:38:10.962Z,102066.48
2018-07-01T23:40:40.340Z,102068.70
2018-07-01T23:43:09.743Z,102077.20
2018-07-01T23:45:39.622Z,102075.08
2018-07-01T23:48:09.458Z,102078.76
2018-07-01T23:50:38.905Z,102072.58
2018-07-01T23:53:08.893Z,102069.92
2018-07-01T23:55:38.645Z,102073.81
2018-07-01T23:58:08.889Z,102072.61
